sensor_id;sensor_type;location;lat;lon;timestamp;temperature;humidity
2851;DHT22;1433;49.976;8.342;2023-05-02T00:02:09;12.70;99.90
2851;DHT22;1433;49.976;8.342;2023-05-02T00:04:36;12.50;99.90
2851;DHT22;1433;49.976;8.342;2023-05-02T00:07:02;12.60;99.90
2851;DHT22;1433;49.976;8.342;2023-05-02T00:09:29;12.50;99.90
2851;DHT22;1433;49.976;8.342;2023-05-02T00:11:55;12.50;99.90
2851;DHT22;1433;49.976;8.342;2023-05-02T00:14:21;12.50;99.90
2851;DHT22;1433;49.976;8.342;2023-05-02T00:16:47;12.60;99.90
2851;DHT22;1433;49.976;8.342;2023-05-02T00:19:13;12.70;99.90
2851;DHT22;1433;49.976;8.342;2023-05-02T00:21:39;12.80;99.90
2851;DHT22;1433;49.976;8.342;2023-05-02T00:24:06;12.80;99.90
2851;DHT22;1433;49.976;8.342;2023-05-02T00:26:32;12.80;99.90
2851;DHT22;1433;49.976;8.342;2023-05-02T00:28:58;12.80;99.90
2851;DHT22;1433;49.976;8.342;2023-05-02T00:31:25;12.80;99.90
2851;DHT22;1433;49.976;8.342;2023-05-02T00:33:51;12.80;99.90
2851;DHT22;1433;49.976;8.342;2023-05-02T00:36:18;12.70;99.90
2851;DHT22;1433;49.976;8.342;2023-05-02T00:38:44;12.70;99.90
2851;DHT22;1433;49.976;8.342;2023-05-02T00:41:10;12.70;99.90
2851;DHT22;1433;49.976;8.342;2023-05-02T00:43:37;12.70;99.90
2851;DHT22;1433;49.976;8.342;2023-05-02T00:46:06;12.60;99.90
2851;DHT22;1433;49.976;8.342;2023-05-02T00:48:33;12.70;99.90
2851;DHT22;1433;49.976;8.342;2023-05-02T00:53:47;12.70;99.90
2851;DHT22;1433;49.976;8.342;2023-05-02T00:56:13;12.70;99.90
2851;DHT22;1433;49.976;8.342;2023-05-02T00:58:40;12.70;99.90
2851;DHT22;1433;49.976;8.342;2023-05-02T01:01:32;12.70;99.90
2851;DHT22;1433;49.976;8.342;2023-05-02T01:04:15;12.70;66.90
2851;DHT22;1433;49.976;8.342;2023-05-02T01:09:51;12.60;99.90
2851;DHT22;1433;49.976;8.342;2023-05-02T01:12:25;12.50;99.90
2851;DHT22;1433;49.976;8.342;2023-05-02T01:14:54;12.40;99.90
2851;DHT22;1433;49.976;8.342;2023-05-02T01:17:23;12.30;99.90
2851;DHT22;1433;49.976;8.342;2023-05-02T01:19:53;12.30;99.90
2851;DHT22;1433;49.976;8.342;2023-05-02T01:22:21;12.30;99.90
2851;DHT22;1433;49.976;8.342;2023-05-02T01:25:16;12.30;99.90
2851;DHT22;1433;49.976;8.342;2023-05-02T01:30:25;12.30;99.90
2851;DHT22;1433;49.976;8.342;2023-05-02T01:32:54;12.30;99.90
2851;DHT22;1433;49.976;8.342;2023-05-02T01:35:23;12.20;99.90
2851;DHT22;1433;49.976;8.342;2023-05-02T01:37:50;12.20;99.90
2851;DHT22;1433;49.976;8.342;2023-05-02T01:40:19;12.30;99.90
2851;DHT22;1433;49.976;8.342;2023-05-02T01:42:49;12.30;99.90
2851;DHT22;1433;49.976;8.342;2023-05-02T01:45:16;12.20;99.90
2851;DHT22;1433;49.976;8.342;2023-05-02T01:47:44;12.20;99.90
2851;DHT22;1433;49.976;8.342;2023-05-02T01:50:14;12.10;99.90
2851;DHT22;1433;49.976;8.342;2023-05-02T01:52:43;12.10;99.90
2851;DHT22;1433;49.976;8.342;2023-05-02T01:55:12;12.00;99.90
2851;DHT22;1433;49.976;8.342;2023-05-02T01:57:41;11.90;99.90
2851;DHT22;1433;49.976;8.342;2023-05-02T02:00:09;11.90;99.90
2851;DHT22;1433;49.976;8.342;2023-05-02T02:02:41;11.90;99.90
2851;DHT22;1433;49.976;8.342;2023-05-02T02:05:09;11.90;99.90
2851;DHT22;1433;49.976;8.342;2023-05-02T02:07:36;12.00;99.90
2851;DHT22;1433;49.976;8.342;2023-05-02T02:10:03;12.10;99.90
2851;DHT22;1433;49.976;8.342;2023-05-02T02:12:48;12.20;99.90
2851;DHT22;1433;49.976;8.342;2023-05-02T02:15:20;12.20;99.90
2851;DHT22;1433;49.976;8.342;2023-05-02T02:18:04;12.10;99.90
2851;DHT22;1433;49.976;8.342;2023-05-02T02:20:27;12.10;99.90
2851;DHT22;1433;49.976;8.342;2023-05-02T02:22:55;12.10;99.90
2851;DHT22;1433;49.976;8.342;2023-05-02T02:25:22;12.10;99.90
2851;DHT22;1433;49.976;8.342;2023-05-02T02:27:50;12.00;99.90
2851;DHT22;1433;49.976;8.342;2023-05-02T02:30:16;12.00;99.90
2851;DHT22;1433;49.976;8.342;2023-05-02T02:32:42;12.00;99.90
2851;DHT22;1433;49.976;8.342;2023-05-02T02:35:09;11.90;99.90
2851;DHT22;1433;49.976;8.342;2023-05-02T02:38:05;11.90;99.90
2851;DHT22;1433;49.976;8.342;2023-05-02T02:40:44;11.80;99.90
2851;DHT22;1433;49.976;8.342;2023-05-02T02:48:42;11.70;99.90
2851;DHT22;1433;49.976;8.342;2023-05-02T02:54:17;11.70;99.90
2851;DHT22;1433;49.976;8.342;2023-05-02T02:56:44;11.60;99.90
2851;DHT22;1433;49.976;8.342;2023-05-02T02:59:14;11.60;99.90
2851;DHT22;1433;49.976;8.342;2023-05-02T03:01:43;11.50;99.90
2851;DHT22;1433;49.976;8.342;2023-05-02T03:04:11;11.50;99.90
2851;DHT22;1433;49.976;8.342;2023-05-02T03:06:38;11.40;99.90
2851;DHT22;1433;49.976;8.342;2023-05-02T03:09:05;11.50;99.90
2851;DHT22;1433;49.976;8.342;2023-05-02T03:11:31;11.40;99.90
2851;DHT22;1433;49.976;8.342;2023-05-02T03:13:57;11.30;99.90
2851;DHT22;1433;49.976;8.342;2023-05-02T03:18:58;11.20;99.90
2851;DHT22;1433;49.976;8.342;2023-05-02T03:21:24;11.20;99.90
2851;DHT22;1433;49.976;8.342;2023-05-02T03:23:51;11.20;99.90
2851;DHT22;1433;49.976;8.342;2023-05-02T03:26:18;11.30;99.90
2851;DHT22;1433;49.976;8.342;2023-05-02T03:28:45;11.30;99.90
2851;DHT22;1433;49.976;8.342;2023-05-02T03:31:12;11.30;99.90
2851;DHT22;1433;49.976;8.342;2023-05-02T03:33:41;11.30;99.90
2851;DHT22;1433;49.976;8.342;2023-05-02T03:36:07;11.30;99.90
2851;DHT22;1433;49.976;8.342;2023-05-02T03:38:34;11.30;99.90
2851;DHT22;1433;49.976;8.342;2023-05-02T03:41:02;11.30;99.90
2851;DHT22;1433;49.976;8.342;2023-05-02T03:43:29;11.20;99.90
2851;DHT22;1433;49.976;8.342;2023-05-02T03:45:57;11.20;99.90
2851;DHT22;1433;49.976;8.342;2023-05-02T03:48:24;11.20;99.90
2851;DHT22;1433;49.976;8.342;2023-05-02T03:50:51;11.20;99.90
2851;DHT22;1433;49.976;8.342;2023-05-02T03:53:17;11.20;99.90
2851;DHT22;1433;49.976;8.342;2023-05-02T03:55:45;11.20;99.90
2851;DHT22;1433;49.976;8.342;2023-05-02T03:58:14;11.00;99.90
2851;DHT22;1433;49.976;8.342;2023-05-02T04:00:40;10.90;99.90
2851;DHT22;1433;49.976;8.342;2023-05-02T04:03:07;10.90;99.90
2851;DHT22;1433;49.976;8.342;2023-05-02T04:05:35;11.00;99.90
2851;DHT22;1433;49.976;8.342;2023-05-02T04:08:01;11.00;99.90
2851;DHT22;1433;49.976;8.342;2023-05-02T04:10:28;11.00;99.90
2851;DHT22;1433;49.976;8.342;2023-05-02T04:12:57;11.00;99.90
2851;DHT22;1433;49.976;8.342;2023-05-02T04:15:23;11.00;99.90
2851;DHT22;1433;49.976;8.342;2023-05-02T04:17:51;11.10;99.90
2851;DHT22;1433;49.976;8.342;2023-05-02T04:20:28;11.10;99.90
2851;DHT22;1433;49.976;8.342;2023-05-02T04:22:54;11.00;99.90
2851;DHT22;1433;49.976;8.342;2023-05-02T04:25:21;11.00;99.90
2851;DHT22;1433;49.976;8.342;2023-05-02T04:27:49;11.00;99.90
2851;DHT22;1433;49.976;8.342;2023-05-02T04:30:17;11.10;99.90
2851;DHT22;1433;49.976;8.342;2023-05-02T04:32:46;11.10;99.90
2851;DHT22;1433;49.976;8.342;2023-05-02T04:35:12;11.10;99.90
2851;DHT22;1433;49.976;8.342;2023-05-02T04:37:41;11.20;99.90
2851;DHT22;1433;49.976;8.342;2023-05-02T04:40:08;11.20;99.90
2851;DHT22;1433;49.976;8.342;2023-05-02T04:42:35;11.30;99.90
2851;DHT22;1433;49.976;8.342;2023-05-02T04:45:09;11.30;99.90
2851;DHT22;1433;49.976;8.342;2023-05-02T04:47:35;11.40;99.90
2851;DHT22;1433;49.976;8.342;2023-05-02T04:50:02;11.50;99.90
2851;DHT22;1433;49.976;8.342;2023-05-02T04:52:29;11.50;99.90
2851;DHT22;1433;49.976;8.342;2023-05-02T04:54:55;11.50;99.90
2851;DHT22;1433;49.976;8.342;2023-05-02T04:57:22;11.60;99.90
2851;DHT22;1433;49.976;8.342;2023-05-02T04:59:50;11.60;99.90
2851;DHT22;1433;49.976;8.342;2023-05-02T05:02:17;11.60;99.90
2851;DHT22;1433;49.976;8.342;2023-05-02T05:04:43;11.70;99.90
2851;DHT22;1433;49.976;8.342;2023-05-02T05:07:11;11.70;99.90
2851;DHT22;1433;49.976;8.342;2023-05-02T05:09:37;11.70;99.90
2851;DHT22;1433;49.976;8.342;2023-05-02T05:12:04;11.80;99.90
2851;DHT22;1433;49.976;8.342;2023-05-02T05:14:33;11.80;99.90
2851;DHT22;1433;49.976;8.342;2023-05-02T05:17:00;11.80;99.90
2851;DHT22;1433;49.976;8.342;2023-05-02T05:19:27;11.80;99.90
2851;DHT22;1433;49.976;8.342;2023-05-02T05:21:54;11.90;99.90
2851;DHT22;1433;49.976;8.342;2023-05-02T05:24:21;11.90;99.90
2851;DHT22;1433;49.976;8.342;2023-05-02T05:26:50;11.90;99.90
2851;DHT22;1433;49.976;8.342;2023-05-02T05:29:17;11.90;99.90
2851;DHT22;1433;49.976;8.342;2023-05-02T05:31:44;12.00;99.90
2851;DHT22;1433;49.976;8.342;2023-05-02T05:34:13;12.00;99.90
2851;DHT22;1433;49.976;8.342;2023-05-02T05:36:40;12.10;99.90
2851;DHT22;1433;49.976;8.342;2023-05-02T05:39:06;12.10;99.90
2851;DHT22;1433;49.976;8.342;2023-05-02T05:41:34;12.10;99.90
2851;DHT22;1433;49.976;8.342;2023-05-02T05:44:02;12.20;99.90
2851;DHT22;1433;49.976;8.342;2023-05-02T05:46:29;12.20;99.90
2851;DHT22;1433;49.976;8.342;2023-05-02T05:48:56;12.20;99.90
2851;DHT22;1433;49.976;8.342;2023-05-02T05:51:22;12.30;99.90
2851;DHT22;1433;49.976;8.342;2023-05-02T05:53:49;12.40;99.90
2851;DHT22;1433;49.976;8.342;2023-05-02T05:56:15;12.40;99.90
2851;DHT22;1433;49.976;8.342;2023-05-02T05:58:47;12.50;99.90
2851;DHT22;1433;49.976;8.342;2023-05-02T06:01:14;12.50;99.90
2851;DHT22;1433;49.976;8.342;2023-05-02T06:03:40;12.60;99.90
2851;DHT22;1433;49.976;8.342;2023-05-02T06:06:06;12.70;99.90
2851;DHT22;1433;49.976;8.342;2023-05-02T06:08:33;12.70;99.90
2851;DHT22;1433;49.976;8.342;2023-05-02T06:10:59;12.80;99.90
2851;DHT22;1433;49.976;8.342;2023-05-02T06:13:25;12.90;99.90
2851;DHT22;1433;49.976;8.342;2023-05-02T06:15:51;13.00;99.90
2851;DHT22;1433;49.976;8.342;2023-05-02T06:18:17;13.10;99.90
2851;DHT22;1433;49.976;8.342;2023-05-02T06:20:43;13.30;99.90
2851;DHT22;1433;49.976;8.342;2023-05-02T06:23:10;13.20;99.90
2851;DHT22;1433;49.976;8.342;2023-05-02T06:25:37;13.30;99.90
2851;DHT22;1433;49.976;8.342;2023-05-02T06:28:03;13.30;99.90
2851;DHT22;1433;49.976;8.342;2023-05-02T06:30:29;13.50;99.90
2851;DHT22;1433;49.976;8.342;2023-05-02T06:32:55;13.50;99.90
2851;DHT22;1433;49.976;8.342;2023-05-02T06:35:22;13.50;99.90
2851;DHT22;1433;49.976;8.342;2023-05-02T06:37:48;13.50;99.90
2851;DHT22;1433;49.976;8.342;2023-05-02T06:40:14;13.50;99.90
2851;DHT22;1433;49.976;8.342;2023-05-02T06:42:40;13.50;99.90
2851;DHT22;1433;49.976;8.342;2023-05-02T06:45:07;13.70;99.90
2851;DHT22;1433;49.976;8.342;2023-05-02T06:47:33;13.80;99.90
2851;DHT22;1433;49.976;8.342;2023-05-02T06:49:59;13.70;99.90
2851;DHT22;1433;49.976;8.342;2023-05-02T06:52:25;13.80;99.90
2851;DHT22;1433;49.976;8.342;2023-05-02T06:54:52;13.80;99.90
2851;DHT22;1433;49.976;8.342;2023-05-02T06:57:18;13.90;99.90
2851;DHT22;1433;49.976;8.342;2023-05-02T06:59:44;14.20;99.90
2851;DHT22;1433;49.976;8.342;2023-05-02T07:02:10;14.30;1.00
2851;DHT22;1433;49.976;8.342;2023-05-02T07:04:36;14.50;99.90
2851;DHT22;1433;49.976;8.342;2023-05-02T07:07:03;14.40;94.50
2851;DHT22;1433;49.976;8.342;2023-05-02T07:09:29;14.30;99.90
2851;DHT22;1433;49.976;8.342;2023-05-02T07:11:55;14.20;99.90
2851;DHT22;1433;49.976;8.342;2023-05-02T07:14:22;14.30;99.90
2851;DHT22;1433;49.976;8.342;2023-05-02T07:16:48;14.30;99.90
2851;DHT22;1433;49.976;8.342;2023-05-02T07:19:14;13.90;99.90
2851;DHT22;1433;49.976;8.342;2023-05-02T07:21:40;13.70;99.90
2851;DHT22;1433;49.976;8.342;2023-05-02T07:24:06;13.60;99.90
2851;DHT22;1433;49.976;8.342;2023-05-02T07:26:33;13.60;99.90
2851;DHT22;1433;49.976;8.342;2023-05-02T07:28:59;13.60;3.90
2851;DHT22;1433;49.976;8.342;2023-05-02T07:31:25;13.70;99.90
2851;DHT22;1433;49.976;8.342;2023-05-02T07:33:51;13.60;99.90
2851;DHT22;1433;49.976;8.342;2023-05-02T07:36:18;13.80;45.10
2851;DHT22;1433;49.976;8.342;2023-05-02T07:38:44;14.00;1.00
2851;DHT22;1433;49.976;8.342;2023-05-02T07:41:12;14.20;1.00
2851;DHT22;1433;49.976;8.342;2023-05-02T07:43:38;14.20;1.00
2851;DHT22;1433;49.976;8.342;2023-05-02T07:46:05;14.30;1.00
2851;DHT22;1433;49.976;8.342;2023-05-02T07:48:31;14.40;1.00
2851;DHT22;1433;49.976;8.342;2023-05-02T07:51:06;14.20;1.00
2851;DHT22;1433;49.976;8.342;2023-05-02T07:53:33;14.30;1.00
2851;DHT22;1433;49.976;8.342;2023-05-02T07:55:59;14.20;99.90
2851;DHT22;1433;49.976;8.342;2023-05-02T07:58:26;13.90;99.90
2851;DHT22;1433;49.976;8.342;2023-05-02T08:00:52;14.10;99.90
2851;DHT22;1433;49.976;8.342;2023-05-02T08:03:19;14.20;99.90
2851;DHT22;1433;49.976;8.342;2023-05-02T08:05:45;14.20;99.90
2851;DHT22;1433;49.976;8.342;2023-05-02T08:08:11;14.10;99.90
2851;DHT22;1433;49.976;8.342;2023-05-02T08:10:37;14.10;99.90
2851;DHT22;1433;49.976;8.342;2023-05-02T08:13:03;14.20;99.90
2851;DHT22;1433;49.976;8.342;2023-05-02T08:15:29;14.30;99.90
2851;DHT22;1433;49.976;8.342;2023-05-02T08:17:55;14.40;99.90
2851;DHT22;1433;49.976;8.342;2023-05-02T08:20:22;14.50;9.00
2851;DHT22;1433;49.976;8.342;2023-05-02T08:22:48;14.30;99.90
2851;DHT22;1433;49.976;8.342;2023-05-02T08:25:15;14.30;99.90
2851;DHT22;1433;49.976;8.342;2023-05-02T08:27:41;14.10;47.60
2851;DHT22;1433;49.976;8.342;2023-05-02T08:30:07;14.00;99.90
2851;DHT22;1433;49.976;8.342;2023-05-02T08:32:35;13.90;99.90
2851;DHT22;1433;49.976;8.342;2023-05-02T08:35:01;13.80;99.90
2851;DHT22;1433;49.976;8.342;2023-05-02T08:37:28;13.70;99.90
2851;DHT22;1433;49.976;8.342;2023-05-02T08:39:54;13.80;99.90
2851;DHT22;1433;49.976;8.342;2023-05-02T08:42:20;13.90;99.90
2851;DHT22;1433;49.976;8.342;2023-05-02T08:44:48;14.00;99.90
2851;DHT22;1433;49.976;8.342;2023-05-02T08:47:14;14.10;99.90
2851;DHT22;1433;49.976;8.342;2023-05-02T08:49:41;14.10;99.90
2851;DHT22;1433;49.976;8.342;2023-05-02T08:52:08;14.30;99.90
2851;DHT22;1433;49.976;8.342;2023-05-02T08:54:37;14.50;44.50
2851;DHT22;1433;49.976;8.342;2023-05-02T08:57:04;14.80;75.10
2851;DHT22;1433;49.976;8.342;2023-05-02T08:59:30;14.90;1.00
2851;DHT22;1433;49.976;8.342;2023-05-02T09:02:07;15.10;89.10
2851;DHT22;1433;49.976;8.342;2023-05-02T09:04:30;14.90;1.00
2851;DHT22;1433;49.976;8.342;2023-05-02T09:07:00;14.40;99.90
2851;DHT22;1433;49.976;8.342;2023-05-02T09:09:27;14.30;99.90
2851;DHT22;1433;49.976;8.342;2023-05-02T09:11:55;14.30;99.90
2851;DHT22;1433;49.976;8.342;2023-05-02T09:14:21;14.30;99.90
2851;DHT22;1433;49.976;8.342;2023-05-02T09:16:49;14.50;26.90
2851;DHT22;1433;49.976;8.342;2023-05-02T09:19:25;14.80;1.00
2851;DHT22;1433;49.976;8.342;2023-05-02T09:21:51;14.90;1.00
2851;DHT22;1433;49.976;8.342;2023-05-02T09:24:19;15.00;1.00
2851;DHT22;1433;49.976;8.342;2023-05-02T09:27:02;15.20;99.90
2851;DHT22;1433;49.976;8.342;2023-05-02T09:29:30;15.40;1.00
2851;DHT22;1433;49.976;8.342;2023-05-02T09:31:59;15.30;99.90
2851;DHT22;1433;49.976;8.342;2023-05-02T09:34:26;15.10;1.00
2851;DHT22;1433;49.976;8.342;2023-05-02T09:36:52;15.00;1.00
2851;DHT22;1433;49.976;8.342;2023-05-02T09:39:21;14.80;1.00
2851;DHT22;1433;49.976;8.342;2023-05-02T09:41:48;15.00;1.00
2851;DHT22;1433;49.976;8.342;2023-05-02T09:44:16;15.00;1.00
2851;DHT22;1433;49.976;8.342;2023-05-02T09:46:50;15.30;1.00
2851;DHT22;1433;49.976;8.342;2023-05-02T09:49:17;15.30;1.00
2851;DHT22;1433;49.976;8.342;2023-05-02T09:51:45;16.00;1.00
2851;DHT22;1433;49.976;8.342;2023-05-02T09:54:13;16.10;1.00
2851;DHT22;1433;49.976;8.342;2023-05-02T09:56:53;16.10;1.00
2851;DHT22;1433;49.976;8.342;2023-05-02T09:59:22;16.40;1.00
2851;DHT22;1433;49.976;8.342;2023-05-02T10:02:04;16.70;1.00
2851;DHT22;1433;49.976;8.342;2023-05-02T10:04:32;16.60;3.80
2851;DHT22;1433;49.976;8.342;2023-05-02T10:07:01;16.40;1.00
2851;DHT22;1433;49.976;8.342;2023-05-02T10:09:28;16.40;1.00
2851;DHT22;1433;49.976;8.342;2023-05-02T10:11:59;16.90;1.00
2851;DHT22;1433;49.976;8.342;2023-05-02T10:14:29;16.40;1.00
2851;DHT22;1433;49.976;8.342;2023-05-02T10:17:04;16.30;1.00
2851;DHT22;1433;49.976;8.342;2023-05-02T10:22:30;16.20;1.00
2851;DHT22;1433;49.976;8.342;2023-05-02T10:24:59;16.90;1.00
2851;DHT22;1433;49.976;8.342;2023-05-02T10:27:29;17.20;50.20
2851;DHT22;1433;49.976;8.342;2023-05-02T10:29:58;16.90;99.90
2851;DHT22;1433;49.976;8.342;2023-05-02T10:35:15;17.00;99.90
2851;DHT22;1433;49.976;8.342;2023-05-02T10:37:43;17.80;1.00
2851;DHT22;1433;49.976;8.342;2023-05-02T10:40:11;18.20;99.90
2851;DHT22;1433;49.976;8.342;2023-05-02T10:42:43;19.20;99.90
2851;DHT22;1433;49.976;8.342;2023-05-02T10:45:28;19.60;99.90
2851;DHT22;1433;49.976;8.342;2023-05-02T10:47:41;19.50;1.00
2851;DHT22;1433;49.976;8.342;2023-05-02T10:50:08;19.20;1.00
2851;DHT22;1433;49.976;8.342;2023-05-02T10:52:37;19.20;1.00
2851;DHT22;1433;49.976;8.342;2023-05-02T10:55:20;19.50;1.00
2851;DHT22;1433;49.976;8.342;2023-05-02T11:00:31;19.70;1.00
2851;DHT22;1433;49.976;8.342;2023-05-02T11:02:59;20.70;99.90
2851;DHT22;1433;49.976;8.342;2023-05-02T11:05:26;21.60;99.90
2851;DHT22;1433;49.976;8.342;2023-05-02T11:10:43;21.60;99.90
2851;DHT22;1433;49.976;8.342;2023-05-02T11:13:11;21.60;99.90
2851;DHT22;1433;49.976;8.342;2023-05-02T11:18:11;24.60;99.90
2851;DHT22;1433;49.976;8.342;2023-05-02T11:20:41;25.60;99.90
2851;DHT22;1433;49.976;8.342;2023-05-02T11:25:47;25.80;99.90
2851;DHT22;1433;49.976;8.342;2023-05-02T11:32:06;26.60;99.90
2851;DHT22;1433;49.976;8.342;2023-05-02T11:33:42;27.40;99.90
2851;DHT22;1433;49.976;8.342;2023-05-02T11:36:10;27.70;99.90
2851;DHT22;1433;49.976;8.342;2023-05-02T11:38:37;27.30;99.90
2851;DHT22;1433;49.976;8.342;2023-05-02T11:41:03;25.90;99.90
2851;DHT22;1433;49.976;8.342;2023-05-02T11:43:30;24.40;99.90
2851;DHT22;1433;49.976;8.342;2023-05-02T11:45:57;23.30;99.90
2851;DHT22;1433;49.976;8.342;2023-05-02T11:48:25;22.30;99.90
2851;DHT22;1433;49.976;8.342;2023-05-02T11:50:59;21.80;99.90
2851;DHT22;1433;49.976;8.342;2023-05-02T11:53:30;21.90;99.90
2851;DHT22;1433;49.976;8.342;2023-05-02T11:56:02;21.70;99.90
2851;DHT22;1433;49.976;8.342;2023-05-02T11:58:30;20.60;99.90
2851;DHT22;1433;49.976;8.342;2023-05-02T12:01:13;19.90;99.90
2851;DHT22;1433;49.976;8.342;2023-05-02T12:03:40;19.80;99.90
2851;DHT22;1433;49.976;8.342;2023-05-02T12:06:09;19.90;99.90
2851;DHT22;1433;49.976;8.342;2023-05-02T12:08:36;19.00;99.90
2851;DHT22;1433;49.976;8.342;2023-05-02T12:11:02;17.90;99.90
2851;DHT22;1433;49.976;8.342;2023-05-02T12:13:29;16.80;99.90
2851;DHT22;1433;49.976;8.342;2023-05-02T12:15:55;16.10;99.90
2851;DHT22;1433;49.976;8.342;2023-05-02T12:18:23;15.80;99.90
2851;DHT22;1433;49.976;8.342;2023-05-02T12:20:54;15.60;99.90
2851;DHT22;1433;49.976;8.342;2023-05-02T12:23:23;15.60;99.90
2851;DHT22;1433;49.976;8.342;2023-05-02T12:25:49;15.40;99.90
2851;DHT22;1433;49.976;8.342;2023-05-02T12:28:17;15.50;99.90
2851;DHT22;1433;49.976;8.342;2023-05-02T12:30:47;15.50;99.90
2851;DHT22;1433;49.976;8.342;2023-05-02T12:33:13;15.80;99.90
2851;DHT22;1433;49.976;8.342;2023-05-02T12:35:39;16.00;99.90
2851;DHT22;1433;49.976;8.342;2023-05-02T12:38:15;16.20;99.90
2851;DHT22;1433;49.976;8.342;2023-05-02T12:40:49;16.70;99.90
2851;DHT22;1433;49.976;8.342;2023-05-02T12:43:16;16.90;99.90
2851;DHT22;1433;49.976;8.342;2023-05-02T12:45:43;16.70;99.90
2851;DHT22;1433;49.976;8.342;2023-05-02T12:48:24;16.80;99.90
2851;DHT22;1433;49.976;8.342;2023-05-02T12:50:47;17.30;99.90
2851;DHT22;1433;49.976;8.342;2023-05-02T12:53:14;17.40;99.90
2851;DHT22;1433;49.976;8.342;2023-05-02T12:55:40;17.40;99.90
2851;DHT22;1433;49.976;8.342;2023-05-02T12:58:08;17.40;99.90
2851;DHT22;1433;49.976;8.342;2023-05-02T13:00:41;17.50;99.90
2851;DHT22;1433;49.976;8.342;2023-05-02T13:03:09;17.90;99.90
2851;DHT22;1433;49.976;8.342;2023-05-02T13:05:36;17.90;99.90
2851;DHT22;1433;49.976;8.342;2023-05-02T13:08:02;18.00;99.90
2851;DHT22;1433;49.976;8.342;2023-05-02T13:10:28;17.90;99.90
2851;DHT22;1433;49.976;8.342;2023-05-02T13:12:55;18.00;99.90
2851;DHT22;1433;49.976;8.342;2023-05-02T13:15:21;17.90;99.90
2851;DHT22;1433;49.976;8.342;2023-05-02T13:17:49;17.70;99.90
2851;DHT22;1433;49.976;8.342;2023-05-02T13:20:16;17.70;99.90
2851;DHT22;1433;49.976;8.342;2023-05-02T13:22:43;17.40;99.90
2851;DHT22;1433;49.976;8.342;2023-05-02T13:25:09;17.60;99.90
2851;DHT22;1433;49.976;8.342;2023-05-02T13:27:36;17.40;99.90
2851;DHT22;1433;49.976;8.342;2023-05-02T13:30:02;17.40;99.90
2851;DHT22;1433;49.976;8.342;2023-05-02T13:32:29;17.60;99.90
2851;DHT22;1433;49.976;8.342;2023-05-02T13:34:55;17.50;99.90
2851;DHT22;1433;49.976;8.342;2023-05-02T13:37:21;17.60;99.90
2851;DHT22;1433;49.976;8.342;2023-05-02T13:39:48;17.90;99.90
2851;DHT22;1433;49.976;8.342;2023-05-02T13:42:14;17.80;99.90
2851;DHT22;1433;49.976;8.342;2023-05-02T13:44:40;17.60;99.90
2851;DHT22;1433;49.976;8.342;2023-05-02T13:47:06;18.30;99.90
2851;DHT22;1433;49.976;8.342;2023-05-02T13:49:32;18.80;99.90
2851;DHT22;1433;49.976;8.342;2023-05-02T13:51:59;18.80;99.90
2851;DHT22;1433;49.976;8.342;2023-05-02T13:54:26;19.60;99.90
2851;DHT22;1433;49.976;8.342;2023-05-02T13:56:52;20.70;99.90
2851;DHT22;1433;49.976;8.342;2023-05-02T13:59:21;21.40;99.90
2851;DHT22;1433;49.976;8.342;2023-05-02T14:01:48;20.70;99.90
2851;DHT22;1433;49.976;8.342;2023-05-02T14:04:14;21.00;99.90
2851;DHT22;1433;49.976;8.342;2023-05-02T14:06:40;20.00;99.90
2851;DHT22;1433;49.976;8.342;2023-05-02T14:09:06;20.00;99.90
2851;DHT22;1433;49.976;8.342;2023-05-02T14:11:32;20.40;99.90
2851;DHT22;1433;49.976;8.342;2023-05-02T14:13:58;21.00;99.90
2851;DHT22;1433;49.976;8.342;2023-05-02T14:16:25;21.80;99.90
2851;DHT22;1433;49.976;8.342;2023-05-02T14:18:52;22.90;99.90
2851;DHT22;1433;49.976;8.342;2023-05-02T14:21:18;22.00;99.90
2851;DHT22;1433;49.976;8.342;2023-05-02T14:23:44;21.50;99.90
2851;DHT22;1433;49.976;8.342;2023-05-02T14:26:10;21.10;99.90
2851;DHT22;1433;49.976;8.342;2023-05-02T14:28:37;20.70;99.90
2851;DHT22;1433;49.976;8.342;2023-05-02T14:31:04;20.50;99.90
2851;DHT22;1433;49.976;8.342;2023-05-02T14:33:30;19.80;99.90
2851;DHT22;1433;49.976;8.342;2023-05-02T14:35:56;19.80;99.90
2851;DHT22;1433;49.976;8.342;2023-05-02T14:38:22;20.10;99.90
2851;DHT22;1433;49.976;8.342;2023-05-02T14:40:48;20.50;99.90
2851;DHT22;1433;49.976;8.342;2023-05-02T14:43:14;19.90;99.90
2851;DHT22;1433;49.976;8.342;2023-05-02T14:45:41;19.50;99.90
2851;DHT22;1433;49.976;8.342;2023-05-02T14:51:22;19.90;99.90
2851;DHT22;1433;49.976;8.342;2023-05-02T14:53:48;20.60;99.90
2851;DHT22;1433;49.976;8.342;2023-05-02T14:56:14;20.80;99.90
2851;DHT22;1433;49.976;8.342;2023-05-02T14:58:42;20.50;99.90
2851;DHT22;1433;49.976;8.342;2023-05-02T15:01:16;21.70;99.90
2851;DHT22;1433;49.976;8.342;2023-05-02T15:03:43;21.80;99.90
2851;DHT22;1433;49.976;8.342;2023-05-02T15:06:10;21.90;99.90
2851;DHT22;1433;49.976;8.342;2023-05-02T15:08:36;21.80;99.90
2851;DHT22;1433;49.976;8.342;2023-05-02T15:11:03;21.50;99.90
2851;DHT22;1433;49.976;8.342;2023-05-02T15:13:29;21.60;99.90
2851;DHT22;1433;49.976;8.342;2023-05-02T15:15:55;21.50;99.90
2851;DHT22;1433;49.976;8.342;2023-05-02T15:18:22;22.00;99.90
2851;DHT22;1433;49.976;8.342;2023-05-02T15:20:48;21.70;99.90
2851;DHT22;1433;49.976;8.342;2023-05-02T15:23:14;21.40;99.90
2851;DHT22;1433;49.976;8.342;2023-05-02T15:25:40;19.90;99.90
2851;DHT22;1433;49.976;8.342;2023-05-02T15:28:06;19.90;99.90
2851;DHT22;1433;49.976;8.342;2023-05-02T15:30:33;21.30;99.90
2851;DHT22;1433;49.976;8.342;2023-05-02T15:32:59;21.60;99.90
2851;DHT22;1433;49.976;8.342;2023-05-02T15:35:25;21.20;99.90
2851;DHT22;1433;49.976;8.342;2023-05-02T15:37:51;21.40;99.90
2851;DHT22;1433;49.976;8.342;2023-05-02T15:40:18;21.40;99.90
2851;DHT22;1433;49.976;8.342;2023-05-02T15:42:44;21.00;99.90
2851;DHT22;1433;49.976;8.342;2023-05-02T15:45:11;21.40;99.90
2851;DHT22;1433;49.976;8.342;2023-05-02T15:47:40;22.20;99.90
2851;DHT22;1433;49.976;8.342;2023-05-02T15:50:07;22.20;99.90
2851;DHT22;1433;49.976;8.342;2023-05-02T15:52:33;22.40;99.90
2851;DHT22;1433;49.976;8.342;2023-05-02T15:54:59;22.70;99.90
2851;DHT22;1433;49.976;8.342;2023-05-02T15:57:26;21.80;99.90
2851;DHT22;1433;49.976;8.342;2023-05-02T15:59:52;21.20;99.90
2851;DHT22;1433;49.976;8.342;2023-05-02T16:02:19;20.30;99.90
2851;DHT22;1433;49.976;8.342;2023-05-02T16:04:46;20.80;99.90
2851;DHT22;1433;49.976;8.342;2023-05-02T16:07:12;21.40;99.90
2851;DHT22;1433;49.976;8.342;2023-05-02T16:09:39;21.00;99.90
2851;DHT22;1433;49.976;8.342;2023-05-02T16:12:07;20.30;99.90
2851;DHT22;1433;49.976;8.342;2023-05-02T16:14:34;20.10;99.90
2851;DHT22;1433;49.976;8.342;2023-05-02T16:17:00;20.50;99.90
2851;DHT22;1433;49.976;8.342;2023-05-02T16:19:26;20.70;99.90
2851;DHT22;1433;49.976;8.342;2023-05-02T16:21:52;20.80;99.90
2851;DHT22;1433;49.976;8.342;2023-05-02T16:24:19;20.80;99.90
2851;DHT22;1433;49.976;8.342;2023-05-02T16:26:45;20.80;99.90
2851;DHT22;1433;49.976;8.342;2023-05-02T16:29:12;20.80;99.90
2851;DHT22;1433;49.976;8.342;2023-05-02T16:31:42;21.00;99.90
2851;DHT22;1433;49.976;8.342;2023-05-02T16:34:08;21.50;99.90
2851;DHT22;1433;49.976;8.342;2023-05-02T16:36:42;22.10;99.90
2851;DHT22;1433;49.976;8.342;2023-05-02T16:39:08;21.60;99.90
2851;DHT22;1433;49.976;8.342;2023-05-02T16:41:35;21.40;99.90
2851;DHT22;1433;49.976;8.342;2023-05-02T16:44:01;21.70;99.90
2851;DHT22;1433;49.976;8.342;2023-05-02T16:46:28;21.90;99.90
2851;DHT22;1433;49.976;8.342;2023-05-02T16:48:56;21.20;99.90